Time;durP1;ratioP1;P1;durP2;ratioP2;P2;SDS_P1;SDS_P2;PMS_P1;PMS_P2;Temp;Humidity;BMP_temperature;BMP_pressure;BME280_temperature;BME280_humidity;BME280_pressure;Samples;Min_cycle;Max_cycle;Signal;HPM_P1;HPM_P2
2022/08/02 00:00:15;;;;;;;;;2.40;2.40;;;;;22.18;100.00;101492.00;6164046;23;44759;-90
2022/08/02 00:06:05;;;;;;;;;8.00;4.60;;;;;22.15;100.00;101484.22;6140051;23;44714;-93
2022/08/02 00:12:20;;;;;;;;;3.60;3.60;;;;;22.10;100.00;101491.06;6206062;22;44585;-93
2022/08/02 00:15:11;;;;;;;;;4.60;4.60;;;;;;;;6207041;22;44934;-93
2022/08/02 00:17:56;;;;;;;;;5.40;4.20;;;;;21.93;100.00;101492.81;6186526;22;44767;-94
2022/08/02 00:20:37;;;;;;;;;2.20;2.20;;;;;21.88;100.00;101489.75;6179355;23;44787;-93
2022/08/02 00:23:39;;;;;;;;;4.40;4.40;;;;;21.83;100.00;101490.22;6206344;23;44873;-93
2022/08/02 00:26:20;;;;;;;;;3.40;3.40;;;;;21.84;100.00;101486.50;6180626;23;45670;-94
2022/08/02 00:29:05;;;;;;;;;;;;;;;;;;;;;
2022/08/02 00:31:35;;;;;;;;;4.20;3.40;;;;;21.85;100.00;101479.22;6206618;23;68147;-93
2022/08/02 00:34:32;;;;;;;;;4.00;3.00;;;;;21.82;100.00;101483.09;6204584;23;44792;-93
2022/08/02 00:37:17;;;;;;;;;4.00;4.00;;;;;21.76;100.00;101476.47;6208378;22;45047;-93
2022/08/02 00:39:46;;;;;;;;;5.00;4.40;;;;;21.75;100.00;101476.63;6157930;22;44763;-94
2022/08/02 00:45:42;;;;;;;;;3.00;3.00;;;;;21.67;100.00;101472.00;6204332;23;44539;-92
2022/08/02 00:48:35;;;;;;;;;3.20;3.20;;;;;21.65;100.00;101475.88;6178025;23;45188;-92
2022/08/02 00:51:04;;;;;;;;;4.00;3.60;;;;;21.62;100.00;101482.44;6184842;23;44601;-93
2022/08/02 00:53:29;;;;;;;;;3.20;2.00;;;;;21.60;100.00;101483.59;6168212;23;44625;-89
2022/08/02 00:55:55;;;;;;;;;3.00;3.00;;;;;21.61;100.00;101478.03;6161165;23;44947;-89
2022/08/02 00:58:21;;;;;;;;;5.50;4.00;;;;;21.61;100.00;101485.28;6183054;23;45463;-90
2022/08/02 01:00:46;;;;;;;;;5.50;4.25;;;;;21.59;100.00;101481.91;6208619;22;45243;-89
2022/08/02 01:03:12;;;;;;;;;4.00;3.00;;;;;21.59;100.00;101485.47;6184339;23;44714;-89
2022/08/02 01:05:37;;;;;;;;;3.00;3.00;;;;;21.54;100.00;101480.50;6185564;23;44711;-89
2022/08/02 01:08:04;;;;;;;;;2.50;2.50;;;;;21.55;100.00;101486.78;6185861;23;45287;-89
2022/08/02 01:10:29;;;;;;;;;3.00;3.00;;;;;21.51;100.00;101491.63;6185719;23;45219;-90
2022/08/02 01:12:55;;;;;;;;;3.25;3.25;;;;;21.50;100.00;101491.78;6158545;23;44711;-89
2022/08/02 01:15:21;;;;;;;;;4.00;4.00;;;;;21.49;100.00;101490.09;6186903;23;44700;-89
2022/08/02 01:18:25;;;;;;;;;4.40;4.40;;;;;21.46;100.00;101493.94;6186962;23;45337;-89
2022/08/02 01:21:42;;;;;;;;;3.40;3.00;;;;;21.43;100.00;101486.19;6182643;23;44753;-89
2022/08/02 01:24:28;;;;;;;;;3.80;2.80;;;;;21.41;100.00;101495.44;6186247;23;45605;-89
2022/08/02 01:27:02;;;;;;;;;5.40;3.20;;;;;21.36;100.00;101492.34;6186661;23;44778;-90
2022/08/02 01:29:41;;;;;;;;;2.60;2.60;;;;;21.33;100.00;101493.50;6213536;22;45061;-93
2022/08/02 01:35:44;;;;;;;;;3.00;3.00;;;;;21.24;100.00;101492.53;6192695;23;44576;-93
2022/08/02 01:41:55;;;;;;;;;4.00;2.80;;;;;21.19;100.00;101507.53;6196450;23;44835;-94
2022/08/02 01:44:34;;;;;;;;;3.40;3.40;;;;;21.17;100.00;101502.25;6172341;23;44663;-93
2022/08/02 01:47:26;;;;;;;;;3.00;3.00;;;;;21.15;100.00;101506.13;6206030;22;44620;-92
2022/08/02 01:50:01;;;;;;;;;5.20;3.00;;;;;21.15;100.00;101503.44;6205410;23;44877;-93
2022/08/02 01:52:41;;;;;;;;;3.00;3.00;;;;;21.13;100.00;101509.00;6174513;23;45271;-93
2022/08/02 01:55:21;;;;;;;;;3.00;3.00;;;;;21.11;100.00;101500.16;6176914;23;44792;-93
2022/08/02 01:57:54;;;;;;;;;3.20;3.00;;;;;21.07;100.00;101496.06;6170805;23;44640;-92
2022/08/02 02:00:31;;;;;;;;;2.40;2.00;;;;;21.11;100.00;101500.16;6144991;23;44948;-93
2022/08/02 02:03:14;;;;;;;;;1.80;1.80;;;;;21.06;100.00;101497.06;6167325;23;45181;-94
2022/08/02 02:05:55;;;;;;;;;3.80;2.00;;;;;21.07;100.00;101489.81;6169535;23;44762;-93
2022/08/02 02:08:42;;;;;;;;;2.20;2.20;;;;;21.04;100.00;101494.53;6119351;23;44754;-92
2022/08/02 02:11:14;;;;;;;;;2.00;2.00;;;;;20.98;100.00;101487.06;6147117;23;44919;-93
2022/08/02 02:14:08;;;;;;;;;2.00;2.00;;;;;20.95;100.00;101484.63;6169787;23;44924;-93
2022/08/02 02:16:45;;;;;;;;;3.40;3.40;;;;;20.94;100.00;101491.06;6171249;23;44726;-93
2022/08/02 02:19:23;;;;;;;;;3.00;2.60;;;;;20.94;100.00;101482.94;6133743;23;44751;-92
2022/08/02 02:22:08;;;;;;;;;2.00;2.00;;;;;20.93;100.00;101483.94;6143406;23;44915;-92
2022/08/02 02:24:40;;;;;;;;;2.60;2.60;;;;;20.93;100.00;101478.53;6145628;23;45210;-92
2022/08/02 02:27:24;;;;;;;;;7.00;3.00;;;;;20.92;100.00;101470.59;6139141;23;44799;-93
2022/08/02 02:30:05;;;;;;;;;2.80;2.80;;;;;20.91;100.00;101471.59;6142044;23;44618;-93
2022/08/02 02:32:46;;;;;;;;;4.20;3.80;;;;;20.88;100.00;101463.78;6146034;23;44648;-93
2022/08/02 02:35:22;;;;;;;;;3.20;3.00;;;;;20.84;100.00;101474.06;6147266;23;45027;-93
2022/08/02 02:38:01;;;;;;;;;2.60;2.60;;;;;20.82;100.00;101472.50;6122955;23;44760;-92
2022/08/02 02:43:26;;;;;;;;;3.80;3.20;;;;;20.75;100.00;101464.16;6171260;23;44722;-92
2022/08/02 02:46:05;;;;;;;;;4.80;3.60;;;;;20.79;100.00;101473.63;6144561;23;45134;-93
2022/08/02 02:49:05;;;;;;;;;2.60;2.60;;;;;20.75;100.00;101469.56;6167058;23;44745;-93
2022/08/02 02:51:41;;;;;;;;;5.80;4.00;;;;;20.75;100.00;101464.16;6143817;23;44863;-92
2022/08/02 02:54:10;;;;;;;;;5.00;3.20;;;;;20.73;100.00;101471.53;6123908;23;44868;-92
2022/08/02 02:56:51;;;;;;;;;1.60;1.60;;;;;20.69;100.00;101473.69;6202612;23;45177;-93
2022/08/02 02:59:23;;;;;;;;;2.00;2.00;;;;;20.71;100.00;101473.56;6231226;22;44725;-92
2022/08/02 03:01:55;;;;;;;;;3.00;2.00;;;;;20.67;100.00;101464.06;6208005;22;44580;-93
2022/08/02 03:04:27;;;;;;;;;3.00;3.00;;;;;20.70;100.00;101472.72;6197181;23;44782;-90
2022/08/02 03:06:53;;;;;;;;;4.00;2.40;;;;;20.67;100.00;101461.34;6194755;23;45072;-89
2022/08/02 03:09:18;;;;;;;;;3.00;3.00;;;;;20.68;100.00;101465.75;6192321;23;44687;-88
2022/08/02 03:11:45;;;;;;;;;4.00;4.00;;;;;20.65;100.00;101460.66;6190644;23;44706;-89
2022/08/02 03:14:11;;;;;;;;;6.20;4.20;;;;;20.64;100.00;101467.03;6200040;23;44834;-88
2022/08/02 03:16:49;;;;;;;;;6.00;3.40;;;;;20.63;100.00;101459.94;6197234;23;45229;-89
2022/08/02 03:19:16;;;;;;;;;10.40;4.40;;;;;20.60;100.00;101457.53;6193972;23;45146;-88
2022/08/02 03:21:45;;;;;;;;;3.00;3.00;;;;;20.59;100.00;101459.41;6190123;23;44754;-89
2022/08/02 03:24:12;;;;;;;;;3.60;3.60;;;;;20.59;100.00;101455.84;6191827;23;44933;-90
2022/08/02 03:26:37;;;;;;;;;3.20;3.20;;;;;20.60;100.00;101457.53;6192509;23;45116;-89
2022/08/02 03:29:03;;;;;;;;;2.25;2.25;;;;;20.56;100.00;101470.50;6166645;23;45330;-89
2022/08/02 03:31:30;;;;;;;;;3.75;2.50;;;;;20.56;100.00;101462.41;6191689;23;44713;-89
2022/08/02 03:33:58;;;;;;;;;3.40;3.00;;;;;20.56;100.00;101459.72;6187603;23;44745;-89
2022/08/02 03:36:42;;;;;;;;;5.00;4.20;;;;;20.53;100.00;101460.00;6192269;23;44994;-93
2022/08/02 03:39:17;;;;;;;;;4.80;4.80;;;;;20.53;100.00;101465.41;6171037;23;44678;-93
2022/08/02 03:45:21;;;;;;;;;6.60;3.40;;;;;20.51;100.00;101454.75;6209524;22;44588;-93
2022/08/02 03:47:59;;;;;;;;;4.80;3.80;;;;;20.49;100.00;101458.59;6206046;23;45044;-93
2022/08/02 03:50:49;;;;;;;;;4.20;3.00;;;;;20.45;100.00;101454.47;6181152;22;44776;-92
2022/08/02 03:53:34;;;;;;;;;3.00;3.00;;;;;20.45;100.00;101457.16;6180764;22;44766;-92
2022/08/02 03:56:00;;;;;;;;;5.00;3.80;;;;;20.39;100.00;101447.81;6202129;22;44918;-93
2022/08/02 03:58:32;;;;;;;;;4.80;3.80;;;;;20.42;100.00;101457.47;6183311;23;45082;-92
2022/08/02 04:01:01;;;;;;;;;3.00;3.00;;;;;20.43;100.00;101442.97;6209799;22;44718;-93
2022/08/02 04:03:35;;;;;;;;;4.60;3.40;;;;;20.42;100.00;101443.97;6184920;22;44707;-93
2022/08/02 04:06:15;;;;;;;;;4.00;4.00;;;;;20.38;100.00;101442.56;6186801;22;44689;-93
2022/08/02 04:08:52;;;;;;;;;3.60;3.60;;;;;20.38;100.00;101451.50;6182201;23;45072;-93
2022/08/02 04:11:30;;;;;;;;;4.80;3.20;;;;;20.35;100.00;101446.41;6182378;22;44738;-93
2022/08/02 04:14:09;;;;;;;;;3.60;3.60;;;;;20.33;100.00;101439.47;6181960;23;44679;-93
2022/08/02 04:16:55;;;;;;;;;4.80;4.80;;;;;20.31;100.00;101434.25;6177384;23;44802;-93
2022/08/02 04:19:39;;;;;;;;;2.80;2.80;;;;;20.31;100.00;101442.34;6181352;22;45006;-93
2022/08/02 04:22:45;;;;;;;;;4.00;4.00;;;;;20.36;100.00;101448.13;6206157;22;44548;-92
2022/08/02 04:25:23;;;;;;;;;4.40;3.00;;;;;20.34;100.00;101450.09;6180875;23;44723;-93
2022/08/02 04:27:59;;;;;;;;;4.40;4.40;;;;;20.31;100.00;101458.53;6154373;23;44858;-93
2022/08/02 04:30:32;;;;;;;;;4.40;3.80;;;;;20.33;100.00;101455.66;6195815;23;46465;-92
2022/08/02 04:33:04;;;;;;;;;4.60;3.00;;;;;20.33;100.00;101448.41;6201822;23;44783;-93
2022/08/02 04:35:29;;;;;;;;;3.80;3.60;;;;;20.34;100.00;101447.41;6175912;23;44663;-89
2022/08/02 04:37:55;;;;;;;;;5.50;4.25;;;;;20.40;100.00;101460.31;6165462;23;44857;-89
2022/08/02 04:40:20;;;;;;;;;7.25;5.00;;;;;20.37;100.00;101452.53;6217889;22;46721;-89
2022/08/02 04:42:46;;;;;;;;;3.25;2.25;;;;;20.41;100.00;101450.38;6209591;22;44715;-88
2022/08/02 04:45:12;;;;;;;;;7.75;5.00;;;;;20.50;100.00;101454.88;6206137;23;44653;-88
2022/08/02 04:47:49;;;;;;;;;3.25;3.25;;;;;20.57;100.00;101461.41;6209297;22;44772;-93
2022/08/02 04:50:24;;;;;;;;;4.00;4.00;;;;;20.64;100.00;101462.50;6184093;23;45143;-92
2022/08/02 04:52:50;;;;;;;;;4.60;4.00;;;;;20.71;100.00;101460.91;6203526;23;44723;-88
2022/08/02 04:55:15;;;;;;;;;4.00;4.00;;;;;20.81;100.00;101466.25;6177473;23;44576;-88
2022/08/02 04:57:59;;;;;;;;;3.25;3.00;;;;;20.88;100.00;101461.06;6197132;23;44755;-89
2022/08/02 05:00:27;;;;;;;;;3.20;3.20;;;;;20.91;100.00;101444.56;6168037;23;45338;-89
2022/08/02 05:02:54;;;;;;;;;3.80;3.80;;;;;20.96;100.00;101451.22;6191249;23;45305;-89
2022/08/02 05:05:20;;;;;;;;;3.00;3.00;;;;;21.02;100.00;101442.50;6192133;23;44582;-90
2022/08/02 05:07:45;;;;;;;;;4.25;2.75;;;;;21.12;100.00;101455.94;6194177;23;44771;-89
2022/08/02 05:10:14;;;;;;;;;3.50;3.50;;;;;21.23;100.00;101449.47;6192634;23;46630;-90
2022/08/02 05:12:40;;;;;;;;;6.80;4.00;;;;;21.35;100.00;101450.09;6196434;23;44698;-89
2022/08/02 05:15:07;;;;;;;;;3.80;3.80;;;;;21.45;100.00;101443.59;6192082;23;44657;-89
2022/08/02 05:17:32;;;;;;;;;6.40;5.00;;;;;21.59;100.00;101452.16;6192613;23;45141;-90
2022/08/02 05:19:58;;;;;;;;;5.25;4.00;;;;;21.71;100.00;101451.75;6190062;23;45223;-90
2022/08/02 05:22:23;;;;;;;;;5.00;3.75;;;;;21.79;100.00;101450.97;6189155;23;44657;-89
2022/08/02 05:24:49;;;;;;;;;4.00;3.25;;;;;21.84;100.00;101454.03;6166861;22;45249;-89
2022/08/02 05:27:15;;;;;;;;;4.00;3.00;;;;;22.02;100.00;101449.41;6156140;22;44874;-90
2022/08/02 05:29:40;;;;;;;;;3.00;3.00;;;;;22.18;100.00;101454.09;6229157;22;46549;-90
2022/08/02 05:32:13;;;;;;;;;4.75;4.75;;;;;22.36;100.00;101448.63;6204942;23;44670;-93
2022/08/02 05:34:49;;;;;;;;;4.00;3.20;;;;;22.55;100.00;101461.06;6159335;23;44646;-93
2022/08/02 05:37:31;;;;;;;;;5.80;3.80;;;;;22.74;100.00;101458.06;6210671;22;44770;-93
2022/08/02 05:42:50;;;;;;;;;4.60;3.20;;;;;22.95;100.00;101471.19;6202296;23;44702;-94
2022/08/02 05:48:42;;;;;;;;;3.40;3.40;;;;;23.03;100.00;101467.69;6200812;23;44652;-93
2022/08/02 05:55:23;;;;;;;;;4.20;4.20;;;;;23.19;100.00;101473.13;6204832;23;44717;-93
2022/08/02 05:58:16;;;;;;;;;3.20;3.00;;;;;23.10;100.00;101471.41;6170974;23;44754;-93
2022/08/02 06:01:06;;;;;;;;;;;;;;;;;;;;;
2022/08/02 06:03:52;;;;;;;;;4.60;3.60;;;;;23.21;100.00;101456.66;6196654;23;75439;-94
2022/08/02 06:07:07;;;;;;;;;4.20;3.00;;;;;23.29;100.00;101452.09;6194714;23;44711;-93
2022/08/02 06:10:12;;;;;;;;;5.00;2.40;;;;;23.45;100.00;101450.41;6152576;23;44736;-93
2022/08/02 06:13:11;;;;;;;;;8.20;4.00;;;;;23.70;100.00;101456.75;6100797;23;44939;-89
2022/08/02 06:15:40;;;;;;;;;1.80;1.80;;;;;23.74;100.00;101469.78;6192880;23;44928;-90
2022/08/02 06:18:07;;;;;;;;;3.80;3.00;;;;;23.92;100.00;101457.88;6165689;23;44894;-89
2022/08/02 06:20:35;;;;;;;;;5.40;3.00;;;;;24.14;100.00;101462.59;6164258;23;44659;-89
2022/08/02 06:23:07;;;;;;;;;5.00;4.00;;;;;24.38;100.00;101453.56;6192253;23;44786;-89
2022/08/02 06:25:37;;;;;;;;;3.00;3.00;;;;;24.46;100.00;101455.38;6167405;23;46773;-89
2022/08/02 06:28:05;;;;;;;;;3.00;3.00;;;;;24.51;100.00;101453.81;6193942;23;44769;-89
2022/08/02 06:30:32;;;;;;;;;4.20;3.00;;;;;24.60;100.00;101454.63;6165077;23;44776;-90
2022/08/02 06:32:58;;;;;;;;;3.00;2.80;;;;;24.86;100.00;101457.06;6163381;23;45461;-90
2022/08/02 06:35:40;;;;;;;;;3.00;3.00;;;;;25.18;100.00;101455.19;6186742;22;46547;-89
2022/08/02 06:38:08;;;;;;;;;3.40;3.00;;;;;25.50;100.00;101468.53;6193784;23;45306;-90
2022/08/02 06:40:44;;;;;;;;;2.00;2.00;;;;;25.59;100.00;101469.31;6190094;23;44768;-90
2022/08/02 06:43:17;;;;;;;;;3.00;3.00;;;;;25.76;100.00;101468.16;6215413;22;44925;-89
2022/08/02 06:45:42;;;;;;;;;4.20;3.80;;;;;25.87;100.00;101467.72;6189503;23;46668;-89
2022/08/02 06:48:09;;;;;;;;;4.00;4.00;;;;;25.90;100.00;101466.50;6186341;23;45226;-91
2022/08/02 06:50:40;;;;;;;;;2.00;2.00;;;;;25.99;100.00;101472.72;6187968;23;44746;-90
2022/08/02 06:53:07;;;;;;;;;5.00;4.00;;;;;26.06;100.00;101476.38;6189361;23;44764;-90
2022/08/02 06:55:33;;;;;;;;;5.80;4.00;;;;;26.15;100.00;101469.81;6184625;23;45255;-90
2022/08/02 06:57:59;;;;;;;;;3.40;3.40;;;;;26.30;100.00;101477.97;6184782;23;44827;-89
2022/08/02 07:00:41;;;;;;;;;6.40;6.00;;;;;26.29;100.00;101471.69;6166901;23;44841;-93
2022/08/02 07:03:07;;;;;;;;;5.60;5.60;;;;;26.42;100.00;101483.81;6195794;23;44862;-90
2022/08/02 07:05:33;;;;;;;;;3.00;3.00;;;;;26.32;100.00;101478.66;6188520;23;45295;-90
2022/08/02 07:08:00;;;;;;;;;0.20;0.20;;;;;26.29;100.00;101479.84;6190072;23;44738;-88
2022/08/02 07:10:25;;;;;;;;;4.00;4.00;;;;;26.37;100.00;101481.66;6215091;22;44834;-89
2022/08/02 07:13:21;;;;;;;;;3.50;3.50;;;;;26.53;100.00;101488.81;6197795;23;44829;-93
2022/08/02 07:16:33;;;;;;;;;3.80;3.00;;;;;26.50;100.00;101490.06;6199881;23;45139;-94
2022/08/02 07:19:17;;;;;;;;;1.60;1.60;;;;;25.87;100.00;101492.22;6206019;23;44747;-93
2022/08/02 07:22:11;;;;;;;;;4.00;2.00;;;;;25.51;100.00;101486.56;6183200;22;44736;-93
2022/08/02 07:28:53;;;;;;;;;4.20;3.60;;;;;25.48;100.00;101486.06;6208354;23;44967;-93
2022/08/02 07:32:00;;;;;;;;;5.60;5.60;;;;;25.45;100.00;101481.84;6176839;23;45592;-93
2022/08/02 07:34:26;;;;;;;;;5.00;5.00;;;;;25.45;100.00;101484.56;6189660;23;44762;-89
2022/08/02 07:36:52;;;;;;;;;7.00;4.20;;;;;25.64;100.00;101486.78;6163143;23;44840;-88
2022/08/02 07:39:17;;;;;;;;;5.75;5.00;;;;;25.66;100.00;101493.91;6162813;23;45101;-89
2022/08/02 07:41:45;;;;;;;;;6.00;4.00;;;;;25.66;100.00;101485.75;6190785;23;44689;-89
2022/08/02 07:44:10;;;;;;;;;4.80;4.20;;;;;25.52;100.00;101495.56;6175633;22;44668;-89
2022/08/02 07:46:36;;;;;;;;;6.50;5.00;;;;;25.36;100.00;101496.53;6191563;23;44848;-90
2022/08/02 07:49:01;;;;;;;;;5.25;5.00;;;;;25.36;100.00;101491.94;6167769;23;45334;-89
2022/08/02 07:51:27;;;;;;;;;7.50;6.00;;;;;25.24;100.00;101493.41;6190817;23;44775;-88
2022/08/02 07:53:53;;;;;;;;;4.50;4.50;;;;;25.22;100.00;101492.72;6191930;23;44675;-89
2022/08/02 07:56:18;;;;;;;;;11.00;9.25;;;;;25.19;100.00;101493.09;6197792;23;44833;-89
2022/08/02 07:58:45;;;;;;;;;6.75;4.75;;;;;25.18;100.00;101493.25;6173551;23;46425;-89
2022/08/02 08:01:10;;;;;;;;;8.40;5.80;;;;;25.16;100.00;101489.88;6204606;23;44813;-88
2022/08/02 08:03:36;;;;;;;;;5.50;4.75;;;;;25.23;100.00;101479.97;6197125;23;44725;-89
2022/08/02 08:06:01;;;;;;;;;6.00;6.00;;;;;25.40;100.00;101484.25;6192073;23;44624;-89
2022/08/02 08:08:27;;;;;;;;;5.25;5.25;;;;;25.32;100.00;101477.00;6191885;23;45293;-89
2022/08/02 08:10:52;;;;;;;;;5.75;4.00;;;;;25.41;100.00;101474.22;6186751;23;45374;-89
2022/08/02 08:13:18;;;;;;;;;7.50;4.75;;;;;25.62;100.00;101480.66;6161571;23;44932;-89
2022/08/02 08:15:44;;;;;;;;;5.25;3.75;;;;;25.72;100.00;101474.97;6163085;23;44832;-89
2022/08/02 08:18:10;;;;;;;;;8.50;6.00;;;;;25.83;100.00;101474.56;6212845;22;44881;-89
2022/08/02 08:20:42;;;;;;;;;6.20;4.00;;;;;25.89;100.00;101472.97;6193390;23;45381;-88
2022/08/02 08:23:07;;;;;;;;;7.00;6.40;;;;;25.49;100.00;101479.63;6191885;23;44645;-88
2022/08/02 08:25:34;;;;;;;;;5.50;5.50;;;;;25.35;100.00;101471.22;6163495;23;44852;-89
2022/08/02 08:27:59;;;;;;;;;4.20;4.20;;;;;25.44;100.00;101468.44;6193559;23;45370;-89
2022/08/02 08:30:25;;;;;;;;;7.75;5.00;;;;;25.71;100.00;101472.44;6195302;23;44547;-88
2022/08/02 08:32:50;;;;;;;;;6.00;6.00;;;;;25.83;100.00;101474.56;6197642;23;44683;-88
2022/08/02 08:35:16;;;;;;;;;6.00;6.00;;;;;25.68;100.00;101476.38;6199293;23;44865;-90
2022/08/02 08:37:42;;;;;;;;;5.40;5.00;;;;;25.79;100.00;101481.41;6197994;23;45119;-90
2022/08/02 08:40:10;;;;;;;;;5.25;5.25;;;;;25.94;100.00;101466.97;6194009;23;44720;-88
2022/08/02 08:42:48;;;;;;;;;2.80;2.80;;;;;26.01;100.00;101476.09;6200279;23;44632;-93
2022/08/02 08:45:15;;;;;;;;;5.80;5.80;;;;;26.13;100.00;101472.72;6202258;23;44803;-92
2022/08/02 08:47:54;;;;;;;;;6.20;5.00;;;;;25.98;100.00;101485.50;6177236;23;45059;-92
2022/08/02 08:53:50;;;;;;;;;7.60;7.60;;;;;26.32;100.00;101471.31;6212191;22;44780;-92
2022/08/02 08:56:34;;;;;;;;;7.00;6.20;;;;;26.28;100.00;101471.88;6180050;23;44927;-91
2022/08/02 08:59:10;;;;;;;;;8.40;7.00;;;;;26.18;100.00;101457.69;6172793;23;45210;-93
2022/08/02 09:01:54;;;;;;;;;9.20;6.60;;;;;26.12;100.00;101462.88;6165546;23;44876;-92
2022/08/02 09:04:51;;;;;;;;;7.00;5.20;;;;;26.02;100.00;101473.19;6222968;22;44595;-92
2022/08/02 09:07:34;;;;;;;;;7.80;6.20;;;;;26.03;100.00;101464.00;6176006;23;44894;-93
2022/08/02 09:10:45;;;;;;;;;7.40;7.00;;;;;26.05;100.00;101469.25;6177584;23;45139;-92
2022/08/02 09:13:14;;;;;;;;;7.40;7.20;;;;;26.26;100.00;101461.19;6229210;22;44690;-89
2022/08/02 09:15:41;;;;;;;;;6.40;6.20;;;;;26.45;100.00;101462.53;6190423;23;44887;-90
2022/08/02 09:18:07;;;;;;;;;10.20;7.20;;;;;26.53;100.00;101464.28;6187535;23;44916;-89
2022/08/02 09:20:34;;;;;;;;;6.20;5.60;;;;;26.36;100.00;101469.91;6191946;23;45343;-89
2022/08/02 09:23:08;;;;;;;;;2.80;0.00;;;;;26.42;100.00;101471.03;6165840;23;44778;-90
2022/08/02 09:25:34;;;;;;;;;8.60;6.00;;;;;26.58;100.00;101467.28;6192356;23;45205;-89
2022/08/02 09:28:01;;;;;;;;;5.20;5.20;;;;;26.81;100.00;101461.72;6192682;23;44782;-89
2022/08/02 09:30:27;;;;;;;;;7.80;6.00;;;;;26.94;100.00;101463.75;6191144;23;45346;-90
2022/08/02 09:32:53;;;;;;;;;8.00;8.00;;;;;27.18;100.00;101460.69;6212836;22;45062;-89
2022/08/02 09:35:36;;;;;;;;;7.00;5.25;;;;;27.48;100.00;101466.00;6158320;23;44718;-89
2022/08/02 09:38:12;;;;;;;;;8.40;7.20;;;;;27.73;100.00;101452.81;6158871;23;44852;-89
2022/08/02 09:40:43;;;;;;;;;6.00;6.00;;;;;27.70;100.00;101456.72;6183897;22;46661;-89
2022/08/02 09:43:08;;;;;;;;;4.60;3.00;;;;;27.75;100.00;101456.16;6188901;23;44703;-89
2022/08/02 09:45:36;;;;;;;;;7.50;5.00;;;;;27.70;100.00;101456.72;6193523;23;45156;-90
2022/08/02 09:48:05;;;;;;;;;7.80;6.20;;;;;27.52;100.00;101449.03;6163771;23;44932;-89
2022/08/02 09:50:39;;;;;;;;;4.60;4.60;;;;;27.38;100.00;101445.34;6186621;23;45063;-89
2022/08/02 09:53:12;;;;;;;;;10.80;7.80;;;;;27.02;100.00;101453.53;6186640;23;44620;-89
2022/08/02 09:55:39;;;;;;;;;8.60;7.40;;;;;26.95;100.00;101443.63;6184820;23;44781;-90
2022/08/02 09:58:20;;;;;;;;;10.00;7.60;;;;;26.84;100.00;101442.25;6138188;23;44860;-89
2022/08/02 10:00:54;;;;;;;;;6.60;6.60;;;;;26.83;100.00;101446.00;6157733;23;45063;-90
2022/08/02 10:03:23;;;;;;;;;7.00;7.00;;;;;26.91;100.00;101445.88;6168945;23;44696;-88
2022/08/02 10:05:57;;;;;;;;;8.40;7.00;;;;;27.08;100.00;101436.47;6147111;23;44617;-88
2022/08/02 10:08:29;;;;;;;;;6.20;5.40;;;;;27.38;100.00;101428.13;6167363;23;44803;-89
2022/08/02 10:10:59;;;;;;;;;6.40;6.40;;;;;27.68;100.00;101429.63;6164077;23;45015;-89
2022/08/02 10:13:33;;;;;;;;;7.00;6.80;;;;;27.78;100.00;101436.66;6135371;23;44565;-89
2022/08/02 10:19:38;;;;;;;;;;;;;;;;;;;;;
2022/08/02 10:22:08;;;;;;;;;6.00;6.00;;;;;27.83;100.00;101426.00;6200946;23;74216;-88
2022/08/02 10:24:36;;;;;;;;;9.20;5.40;;;;;28.08;100.00;101421.72;6176822;23;44644;-89
2022/08/02 10:27:05;;;;;;;;;6.00;5.20;;;;;28.15;98.48;101436.28;6209980;22;44593;-90
2022/08/02 10:29:36;;;;;;;;;4.80;4.80;;;;;27.87;99.07;101428.13;6194937;23;44826;-89
2022/08/02 10:32:21;;;;;;;;;6.00;6.00;;;;;27.78;100.00;101431.22;6169153;23;46501;-90
2022/08/02 10:35:01;;;;;;;;;3.40;3.40;;;;;27.90;99.13;101419.53;6209432;22;44848;-90
2022/08/02 10:37:30;;;;;;;;;6.40;5.60;;;;;27.99;99.61;101422.94;6184688;23;44722;-90
2022/08/02 10:39:57;;;;;;;;;6.80;6.40;;;;;27.82;99.04;101430.63;6184812;23;44763;-90
2022/08/02 10:42:48;;;;;;;;;5.00;5.00;;;;;28.03;99.19;101426.13;6210919;22;45198;-89
2022/08/02 10:45:16;;;;;;;;;4.20;4.20;;;;;28.13;97.35;101418.41;6154930;23;44577;-90
2022/08/02 10:48:04;;;;;;;;;5.20;2.40;;;;;28.29;97.94;101423.56;6180589;22;44741;-90
2022/08/02 10:50:45;;;;;;;;;4.00;4.00;;;;;28.15;96.13;101425.38;6151700;23;44941;-89
2022/08/02 10:53:33;;;;;;;;;5.00;5.00;;;;;28.12;94.27;101425.75;6167035;23;45424;-89
2022/08/02 10:56:03;;;;;;;;;5.20;5.20;;;;;27.96;94.29;101425.25;6168152;23;44807;-89
2022/08/02 10:58:31;;;;;;;;;7.00;7.00;;;;;27.95;94.03;101427.13;6143995;23;44831;-90
2022/08/02 11:01:29;;;;;;;;;5.20;5.20;;;;;28.24;93.67;101420.59;6170033;23;44788;-94
2022/08/02 11:04:15;;;;;;;;;4.40;4.40;;;;;28.45;93.43;101421.53;6177433;23;45155;-93
2022/08/02 11:07:21;;;;;;;;;8.00;6.20;;;;;28.76;92.86;101408.19;6177022;23;44702;-93
2022/08/02 11:10:25;;;;;;;;;5.20;5.20;;;;;29.04;89.20;101410.81;6152007;23;44751;-93
2022/08/02 11:13:18;;;;;;;;;8.40;7.20;;;;;28.76;89.68;101415.53;6166042;23;44742;-90
2022/08/02 11:15:56;;;;;;;;;6.00;5.60;;;;;28.48;91.60;101405.59;6131054;23;45323;-90
2022/08/02 11:18:42;;;;;;;;;4.40;4.40;;;;;28.70;92.68;101409.00;6158640;23;44783;-90
2022/08/02 11:21:30;;;;;;;;;6.00;4.20;;;;;28.73;90.72;101410.50;6158037;23;44790;-90
2022/08/02 11:24:27;;;;;;;;;6.80;5.20;;;;;28.99;91.79;101407.84;6143367;23;44735;-91
2022/08/02 11:26:53;;;;;;;;;5.00;5.00;;;;;29.23;89.46;101400.94;6162590;23;44963;-90
2022/08/02 11:29:19;;;;;;;;;6.80;6.80;;;;;28.99;89.95;101396.06;6160702;23;44701;-90
2022/08/02 11:31:46;;;;;;;;;6.20;6.20;;;;;28.85;90.33;101398.72;6163379;23;44663;-90
2022/08/02 11:34:12;;;;;;;;;5.40;4.80;;;;;28.63;91.17;101398.06;6161849;23;44779;-90
2022/08/02 11:36:49;;;;;;;;;5.25;5.25;;;;;28.99;91.49;101390.59;6133154;23;45141;-88
2022/08/02 11:39:17;;;;;;;;;5.60;5.60;;;;;29.28;89.58;101394.84;6157812;23;45246;-89
2022/08/02 11:41:51;;;;;;;;;6.80;6.00;;;;;29.52;88.25;101391.44;6159086;23;44711;-89
2022/08/02 11:44:17;;;;;;;;;5.60;5.60;;;;;29.79;87.81;101388.72;6157482;23;44744;-89
2022/08/02 11:46:43;;;;;;;;;5.00;5.00;;;;;29.81;84.46;101383.88;6130268;23;46921;-90
2022/08/02 11:49:17;;;;;;;;;6.25;6.25;;;;;29.90;86.08;101390.81;6161622;23;44715;-90
2022/08/02 11:52:06;;;;;;;;;4.00;4.00;;;;;29.98;83.50;101390.59;6162828;23;44710;-90
2022/08/02 11:54:40;;;;;;;;;5.00;5.00;;;;;30.12;83.40;101381.25;6163145;23;44792;-88
2022/08/02 11:57:14;;;;;;;;;4.40;4.40;;;;;30.26;84.34;101384.81;6170420;23;45114;-89
2022/08/02 11:59:42;;;;;;;;;4.60;4.00;;;;;30.40;82.15;101385.59;6169109;23;44718;-88
2022/08/02 12:02:08;;;;;;;;;6.00;6.00;;;;;30.34;84.57;101379.09;6174296;23;44780;-87
2022/08/02 12:04:34;;;;;;;;;5.60;5.60;;;;;30.37;82.85;101372.34;6166981;23;44920;-89
2022/08/02 12:07:01;;;;;;;;;6.20;4.60;;;;;30.45;79.36;101375.66;6161429;23;45091;-89
2022/08/02 12:09:29;;;;;;;;;5.00;5.00;;;;;30.24;78.08;101375.13;6158922;23;44629;-89
2022/08/02 12:11:55;;;;;;;;;3.20;3.20;;;;;30.28;79.99;101377.22;6161777;23;44743;-90
2022/08/02 12:14:25;;;;;;;;;3.40;3.40;;;;;30.55;79.10;101377.06;6161904;23;44738;-90
2022/08/02 12:19:36;;;;;;;;;3.60;3.60;;;;;30.00;76.64;101369.28;6165991;23;44665;-90
2022/08/02 12:22:12;;;;;;;;;3.20;2.20;;;;;29.88;77.07;101376.47;6165433;23;44637;-90
2022/08/02 12:24:40;;;;;;;;;3.60;3.00;;;;;29.80;76.56;101371.22;6163276;23;44751;-89
2022/08/02 12:27:06;;;;;;;;;2.80;2.80;;;;;30.03;77.07;101362.53;6132176;23;44991;-89
2022/08/02 12:29:36;;;;;;;;;4.60;2.00;;;;;30.14;73.95;101381.91;6130074;23;44767;-89
2022/08/02 12:32:02;;;;;;;;;3.00;2.00;;;;;30.07;73.74;101369.25;6130656;23;44689;-90
2022/08/02 12:34:33;;;;;;;;;5.20;3.00;;;;;30.17;74.30;101366.91;6158297;23;44867;-89
2022/08/02 12:37:08;;;;;;;;;3.00;3.00;;;;;30.21;72.57;101363.53;6133715;23;45193;-90
2022/08/02 12:39:39;;;;;;;;;2.40;2.20;;;;;30.46;75.05;101360.03;6170978;23;44751;-89
2022/08/02 12:42:07;;;;;;;;;3.20;3.20;;;;;30.71;72.00;101365.66;6139391;23;44773;-89